Details From NTAA - Faaa
To SCIP - Mataveri Intl
Flight Number -
Tags Decoded
Created
Modified
Stats Distance 2,295 nm / 4,249 km
Max Altitude 0 ft / 0 m
Waypoints 3
Social Downloads 3
Likes 0
Share VATSIM

Download

Looking for another format? Having issues loading an existing format? Contact us
Advertisement - Login to hide

Notes

Decoded

Route

NTAA TATIA SCIP

ID Type Via Altitude Latitude Longitude Leg Dist Tot Dist Heading (true) Name
O NTAA APT - 0 ft / 0 m -17.56288˚ -149.62043˚ - 0 nm - -
TATIA FIX - 0 ft / 0 m -18.28167˚ -147.64667˚ 120 nm 120 nm 111° / 111° -
O SCIP APT - 0 ft / 0 m -27.15796˚ -109.43667˚ 2173 nm 2294 nm 111° / 96° -

Altitude Profile

Advertisement - Login to hide

Weather


0- 5 10 15 20 25 30 35+ Temperature / ° C

Clouds and Precipitation
Forecast for 2017-12-15 12:00 UTC. Updated an hour ago

Ground ~20,000 ft ~40,000 ft Winds

NTAA

Details ICAO NTAA (PPT)
Name Faaa
Region French Polynesia
Timezone Pacific/Tahiti (UTC-10.0)
Stats Elevation 5 ft / 2 m (AMSL)
Location -17.553765° -149.607255°
Runways 1
Magnetic Variation 12.875° E

METAR

NTAA 150800Z 08007KT 9999 VCSH FEW020 BKN050 BKN260 27/23 Q1009 NOSIG

Decode

TAF

TAF NTAA 142300Z 1500/1606 06015KT 9999 FEW020 BKN230 PROB30 TEMPO 1500/1512 3000 SHRA FEW013CB BKN035 BKN100

Decode

Departure Runways

ID Width Length Bearing (true) Bearing (mag) Surface Threshold Offset Overrun Length
04 148 ft / 45 m 11,323 ft / 3,451 m 54.04° 41.16° Asphalt 1,099 ft / 335 m 0 ft / 0 m
22 148 ft / 45 m 11,323 ft / 3,451 m 234.03° 221.15° Asphalt 479 ft / 146 m 0 ft / 0 m

SCIP

Details ICAO SCIP (IPC)
Name Mataveri Intl
Region Chile
Timezone Pacific/Easter (UTC-5.0)
Stats Elevation 227 ft / 69 m (AMSL)
Location -27.164790° -109.421829°
Runways 1
Magnetic Variation 15.103° E

METAR

SCIP 150800Z 32014KT 9999 SCT015 BKN060 22/19 Q1017 NOSIG

Decode

TAF

TAF SCIP 150445Z 1506/1606 34015KT 9999 SCT020 SCT060 BKN250 TN20/1512Z TX24/1520Z TEMPO 1512/1518 32020KT 7000 -SHRA SCT010 BKN020 OVC060 BECMG 1520/1522 34010KT FEW020 BKN100 TEMPO 1603/1606 32015KT 7000 -SHRA SCT015 BKN020

Decode

Destination Runways

ID Width Length Bearing (true) Bearing (mag) Surface Threshold Offset Overrun Length
10 145 ft / 44 m 10,848 ft / 3,306 m 117.35° 102.25° Asphalt 0 ft / 0 m 355 ft / 108 m
28 145 ft / 44 m 10,848 ft / 3,306 m 297.33° 282.23° Asphalt 0 ft / 0 m 95 ft / 29 m

Approach Navaids

Runway Type Ident Frequency Range Bearing (true) Bearing (mag) Slope Elevation
10 Localiser IIPA 110.30 MHz 18 nm / 33 km 119.21° 104.11° - 127 ft / 39 m (AMSL)
10 Glidescope IIPA 110.30 MHz 10 nm / 19 km 117.34° 102.24° 2.50° 148 ft / 45 m (AMSL)

Popular Alternatives